createdAt,value
2023-05-09T00:00:15.029Z,232.97
2023-05-09T00:01:15.016Z,230.43
2023-05-09T00:02:15.108Z,232.09
2023-05-09T00:03:15.178Z,228.54
2023-05-09T00:04:15.098Z,232.69
2023-05-09T00:05:15.551Z,230.04
2023-05-09T00:06:15.036Z,228.49
2023-05-09T00:07:15.086Z,230.21
2023-05-09T00:08:15.056Z,229.70
2023-05-09T00:09:15.097Z,230.69
2023-05-09T00:10:15.109Z,229.21
2023-05-09T00:11:15.049Z,229.68
2023-05-09T00:12:15.058Z,230.09
2023-05-09T00:13:15.072Z,230.16
2023-05-09T00:14:15.085Z,231.19
2023-05-09T00:15:15.338Z,228.73
2023-05-09T00:16:15.108Z,229.04
2023-05-09T00:17:15.143Z,230.13
2023-05-09T00:18:15.101Z,230.19
2023-05-09T00:19:15.192Z,229.23
2023-05-09T00:20:15.077Z,228.64
2023-05-09T00:21:15.070Z,228.54
2023-05-09T00:22:15.132Z,230.64
2023-05-09T00:23:15.084Z,231.13
2023-05-09T00:24:15.055Z,227.91
2023-05-09T00:25:15.318Z,227.89
2023-05-09T00:26:15.053Z,231.09
2023-05-09T00:27:15.119Z,226.58
2023-05-09T00:28:15.121Z,227.36
2023-05-09T00:29:15.070Z,227.13
2023-05-09T00:30:15.105Z,229.18
2023-05-09T00:31:15.091Z,228.72
2023-05-09T00:32:15.128Z,227.12
2023-05-09T00:33:15.123Z,229.89
2023-05-09T00:34:15.067Z,228.78
2023-05-09T00:35:15.380Z,227.31
2023-05-09T00:36:15.080Z,230.29
2023-05-09T00:37:15.082Z,229.59
2023-05-09T00:38:15.068Z,228.14
2023-05-09T00:39:15.093Z,226.25
2023-05-09T00:40:15.055Z,226.19
2023-05-09T00:41:15.117Z,228.53
2023-05-09T00:42:15.103Z,228.13
2023-05-09T00:43:15.049Z,225.80
2023-05-09T00:44:15.083Z,228.46
2023-05-09T00:45:15.257Z,225.06
2023-05-09T00:46:15.153Z,226.67
2023-05-09T00:47:15.066Z,228.37
2023-05-09T00:48:15.060Z,226.51
2023-05-09T00:49:15.070Z,227.36
2023-05-09T00:50:15.071Z,227.39
2023-05-09T00:51:15.150Z,226.36
2023-05-09T00:52:15.138Z,226.68
2023-05-09T00:53:15.107Z,225.04
2023-05-09T00:54:15.099Z,225.60
2023-05-09T00:55:15.328Z,224.51
2023-05-09T00:56:15.070Z,227.39
2023-05-09T00:57:15.074Z,225.70
2023-05-09T00:58:15.077Z,226.51
2023-05-09T00:59:16.966Z,225.54
2023-05-09T01:00:15.114Z,225.45
2023-05-09T01:01:15.122Z,225.51
2023-05-09T01:02:15.186Z,226.64
2023-05-09T01:03:15.159Z,226.21
2023-05-09T01:04:15.077Z,227.69
2023-05-09T01:05:15.400Z,224.38
2023-05-09T01:06:15.103Z,225.53
2023-05-09T01:07:15.167Z,225.80
2023-05-09T01:08:15.091Z,225.67
2023-05-09T01:09:15.111Z,224.62
2023-05-09T01:10:15.113Z,225.49
2023-05-09T01:11:15.132Z,225.66
2023-05-09T01:12:15.127Z,225.49
2023-05-09T01:13:15.219Z,224.89
2023-05-09T01:14:15.112Z,224.72
2023-05-09T01:15:15.312Z,223.59
2023-05-09T01:16:15.162Z,224.57
2023-05-09T01:17:15.155Z,225.47
2023-05-09T01:18:15.144Z,220.85
2023-05-09T01:19:15.127Z,224.34
2023-05-09T01:20:15.103Z,223.99
2023-05-09T01:21:15.226Z,223.83
2023-05-09T01:22:15.151Z,224.38
2023-05-09T01:23:15.243Z,222.76
2023-05-09T01:24:15.100Z,221.80
2023-05-09T01:25:15.436Z,221.59
2023-05-09T01:26:15.126Z,220.48
2023-05-09T01:27:15.131Z,223.45
2023-05-09T01:28:15.113Z,221.20
2023-05-09T01:29:15.154Z,221.64
2023-05-09T01:30:15.185Z,222.72
2023-05-09T01:31:15.121Z,223.40
2023-05-09T01:32:15.140Z,222.26
2023-05-09T01:33:15.167Z,220.98
2023-05-09T01:34:15.140Z,222.33
2023-05-09T01:35:15.398Z,222.55
2023-05-09T01:36:15.108Z,221.89
2023-05-09T01:37:15.099Z,221.19
2023-05-09T01:38:15.102Z,223.33
2023-05-09T01:39:15.197Z,222.66
2023-05-09T01:40:15.084Z,222.91
2023-05-09T01:41:15.119Z,220.77
2023-05-09T01:42:15.102Z,222.44
2023-05-09T01:43:15.138Z,221.11
2023-05-09T01:44:15.219Z,223.53
2023-05-09T01:45:15.482Z,223.09
2023-05-09T01:46:15.173Z,219.44
2023-05-09T01:47:15.111Z,218.92
2023-05-09T01:48:15.156Z,222.51
2023-05-09T01:49:15.132Z,223.19
2023-05-09T01:50:15.126Z,220.05
2023-05-09T01:51:15.145Z,221.90
2023-05-09T01:52:15.184Z,220.76
2023-05-09T01:53:15.154Z,220.25
2023-05-09T01:54:15.128Z,220.79
2023-05-09T01:55:15.400Z,221.67
2023-05-09T01:56:15.154Z,222.46
2023-05-09T01:57:15.173Z,222.62
2023-05-09T01:58:15.195Z,220.64
2023-05-09T01:59:15.168Z,222.54
2023-05-09T02:00:15.171Z,219.54
2023-05-09T02:01:15.266Z,222.51
2023-05-09T02:02:15.697Z,220.82
2023-05-09T02:03:15.202Z,220.69
2023-05-09T02:04:15.162Z,222.39
2023-05-09T02:05:15.350Z,219.82
2023-05-09T02:06:15.157Z,221.35
2023-05-09T02:07:15.177Z,220.13
2023-05-09T02:08:15.205Z,219.81
2023-05-09T02:09:15.189Z,221.13
2023-05-09T02:10:15.214Z,220.46
2023-05-09T02:11:15.328Z,219.48
2023-05-09T02:12:15.216Z,219.61
2023-05-09T02:13:15.264Z,221.19
2023-05-09T02:14:15.241Z,222.01
2023-05-09T02:15:15.528Z,217.81
2023-05-09T02:16:15.347Z,220.12
2023-05-09T02:17:15.673Z,219.90
2023-05-09T02:18:15.226Z,219.73
2023-05-09T02:19:15.225Z,219.26
2023-05-09T02:20:15.248Z,217.94
2023-05-09T02:21:15.319Z,220.13
2023-05-09T02:22:15.270Z,219.82
2023-05-09T02:23:15.289Z,219.94
2023-05-09T02:24:15.268Z,219.91
2023-05-09T02:25:15.625Z,218.97
2023-05-09T02:26:15.281Z,220.79
2023-05-09T02:27:15.371Z,220.36
2023-05-09T02:28:15.291Z,219.16
2023-05-09T02:29:15.304Z,217.99
2023-05-09T02:30:15.380Z,218.17
2023-05-09T02:31:15.384Z,218.99
2023-05-09T02:32:15.827Z,219.43
2023-05-09T02:33:15.320Z,219.63
2023-05-09T02:34:15.332Z,219.77
2023-05-09T02:35:15.550Z,219.56
2023-05-09T02:36:15.345Z,219.62
2023-05-09T02:37:15.662Z,220.73
2023-05-09T02:38:15.384Z,220.46
2023-05-09T02:39:15.365Z,218.02
2023-05-09T02:40:15.408Z,219.37
2023-05-09T02:41:15.379Z,219.73
2023-05-09T02:42:15.399Z,220.50
2023-05-09T02:43:15.446Z,217.49
2023-05-09T02:44:15.375Z,219.73
2023-05-09T02:45:15.547Z,219.60
2023-05-09T02:46:15.429Z,217.57
2023-05-09T02:47:15.395Z,217.31
2023-05-09T02:48:15.386Z,220.07
2023-05-09T02:49:26.670Z,220.36
2023-05-09T02:50:16.384Z,220.54
2023-05-09T02:51:15.416Z,220.38
2023-05-09T02:52:15.427Z,219.86
2023-05-09T02:53:15.363Z,217.86
2023-05-09T02:54:15.330Z,218.36
2023-05-09T02:55:15.614Z,220.28
2023-05-09T02:56:15.346Z,219.28
2023-05-09T02:57:15.680Z,219.47
2023-05-09T02:58:15.374Z,219.13
2023-05-09T02:59:15.419Z,220.35
2023-05-09T03:00:15.308Z,218.28
2023-05-09T03:01:15.350Z,219.35
2023-05-09T03:02:15.690Z,217.86
2023-05-09T03:03:15.418Z,217.80
2023-05-09T03:04:15.301Z,217.92
2023-05-09T03:05:15.439Z,216.79
2023-05-09T03:06:15.262Z,219.92
2023-05-09T03:07:15.280Z,219.28
2023-05-09T03:08:15.278Z,214.63
2023-05-09T03:09:15.258Z,217.76
2023-05-09T03:10:15.247Z,216.81
2023-05-09T03:11:15.218Z,219.34
2023-05-09T03:12:15.251Z,217.98
2023-05-09T03:13:15.264Z,219.33
2023-05-09T03:14:15.214Z,217.20
2023-05-09T03:15:15.512Z,217.57
2023-05-09T03:16:15.258Z,216.02
2023-05-09T03:17:15.228Z,216.77
2023-05-09T03:18:15.190Z,215.58
2023-05-09T03:19:15.196Z,216.64
2023-05-09T03:20:15.210Z,215.07
2023-05-09T03:21:15.216Z,217.58
2023-05-09T03:22:15.256Z,217.14
2023-05-09T03:23:15.276Z,217.25
2023-05-09T03:24:15.293Z,215.12
2023-05-09T03:25:15.559Z,217.08
2023-05-09T03:26:15.313Z,217.99
2023-05-09T03:27:15.681Z,216.93
2023-05-09T03:28:15.365Z,215.85
2023-05-09T03:29:15.337Z,215.41
2023-05-09T03:30:15.369Z,216.46
2023-05-09T03:31:15.374Z,216.66
2023-05-09T03:32:15.403Z,212.56
2023-05-09T03:33:15.399Z,212.38
2023-05-09T03:34:15.506Z,213.02
2023-05-09T03:35:15.583Z,216.40
2023-05-09T03:36:15.487Z,215.05
2023-05-09T03:37:15.480Z,215.64
2023-05-09T03:38:15.498Z,215.76
2023-05-09T03:39:15.494Z,211.78
2023-05-09T03:40:15.539Z,215.79
2023-05-09T03:41:15.545Z,216.39
2023-05-09T03:42:15.534Z,216.74
2023-05-09T03:43:15.582Z,215.22
2023-05-09T03:44:15.552Z,215.85
2023-05-09T03:45:15.722Z,215.22
2023-05-09T03:46:15.598Z,213.61
2023-05-09T03:47:15.826Z,212.55
2023-05-09T03:48:15.603Z,216.16
2023-05-09T03:49:15.631Z,213.53
2023-05-09T03:50:15.622Z,214.37
2023-05-09T03:51:15.647Z,213.96
2023-05-09T03:52:15.665Z,213.29
2023-05-09T03:53:15.693Z,212.22
2023-05-09T03:54:15.703Z,210.22
2023-05-09T03:55:15.947Z,212.36
2023-05-09T03:56:15.734Z,211.09
2023-05-09T03:57:16.190Z,212.70
2023-05-09T03:58:15.728Z,214.01
2023-05-09T03:59:15.742Z,212.60
2023-05-09T04:00:15.750Z,211.90
2023-05-09T04:01:15.746Z,212.99
2023-05-09T04:02:15.783Z,214.32
2023-05-09T04:03:16.060Z,212.06
2023-05-09T04:04:15.733Z,212.24
2023-05-09T04:05:16.107Z,213.47
2023-05-09T04:06:15.799Z,210.00
2023-05-09T04:07:16.204Z,213.11
2023-05-09T04:08:15.757Z,213.06
2023-05-09T04:09:15.757Z,211.49
2023-05-09T04:10:15.794Z,212.81
2023-05-09T04:11:15.822Z,211.05
2023-05-09T04:12:15.835Z,211.22
2023-05-09T04:13:15.893Z,211.76
2023-05-09T04:14:15.863Z,211.33
2023-05-09T04:15:16.142Z,211.49
2023-05-09T04:16:15.925Z,209.21
2023-05-09T04:17:15.892Z,212.36
2023-05-09T04:18:15.913Z,210.83
2023-05-09T04:19:16.671Z,210.20
2023-05-09T04:20:15.996Z,210.20
2023-05-09T04:21:15.955Z,211.10
2023-05-09T04:22:15.995Z,210.30
2023-05-09T04:23:16.017Z,209.78
2023-05-09T04:24:15.984Z,210.05
2023-05-09T04:25:16.240Z,210.20
2023-05-09T04:26:16.025Z,207.48
2023-05-09T04:27:16.042Z,211.07
2023-05-09T04:28:16.039Z,209.91
2023-05-09T04:29:16.070Z,209.24
2023-05-09T04:30:16.097Z,209.01
2023-05-09T04:31:16.280Z,210.47
2023-05-09T04:32:16.711Z,210.13
2023-05-09T04:33:16.121Z,208.27
2023-05-09T04:34:16.099Z,208.95
2023-05-09T04:35:18.965Z,210.06
2023-05-09T04:36:16.140Z,210.23
2023-05-09T04:37:16.207Z,208.41
2023-05-09T04:38:16.101Z,210.36
2023-05-09T04:39:16.113Z,209.80
2023-05-09T04:40:16.114Z,208.88
2023-05-09T04:41:16.099Z,207.91
2023-05-09T04:42:16.238Z,207.67
2023-05-09T04:43:16.096Z,210.36
2023-05-09T04:44:16.100Z,206.73
2023-05-09T04:45:16.254Z,208.27
2023-05-09T04:46:16.097Z,209.59
2023-05-09T04:47:16.082Z,210.33
2023-05-09T04:48:16.064Z,213.75
2023-05-09T04:49:16.009Z,213.81
2023-05-09T04:50:16.083Z,215.02
2023-05-09T04:51:16.133Z,217.42
2023-05-09T04:52:16.054Z,215.20
2023-05-09T04:53:16.017Z,214.09
2023-05-09T04:54:16.040Z,214.73
2023-05-09T04:55:16.230Z,216.42
2023-05-09T04:56:16.007Z,214.21
2023-05-09T04:57:18.344Z,208.96
2023-05-09T04:58:16.018Z,211.96
2023-05-09T04:59:15.993Z,209.10
2023-05-09T05:00:16.001Z,207.85
2023-05-09T05:01:16.056Z,201.64
2023-05-09T05:02:15.953Z,198.39
2023-05-09T05:03:15.942Z,198.11
2023-05-09T05:04:15.945Z,196.67
2023-05-09T05:05:15.932Z,194.77
2023-05-09T05:06:15.898Z,188.54
2023-05-09T05:07:15.991Z,190.13
2023-05-09T05:08:15.920Z,188.45
2023-05-09T05:09:15.918Z,184.34
2023-05-09T05:10:15.899Z,183.53
2023-05-09T05:11:15.900Z,182.22
2023-05-09T05:12:15.916Z,178.34
2023-05-09T05:13:15.895Z,175.67
2023-05-09T05:14:15.893Z,173.85
2023-05-09T05:15:16.152Z,174.21
2023-05-09T05:16:15.924Z,169.07
2023-05-09T05:17:15.839Z,168.50
2023-05-09T05:18:15.867Z,165.40
2023-05-09T05:19:15.817Z,165.65
2023-05-09T05:20:15.826Z,196.05
2023-05-09T05:21:15.838Z,192.60
2023-05-09T05:22:15.813Z,209.08
2023-05-09T05:23:15.905Z,208.33
2023-05-09T05:24:15.813Z,206.46
2023-05-09T05:25:15.983Z,216.85
2023-05-09T05:26:15.752Z,224.16
2023-05-09T05:27:15.825Z,221.65
2023-05-09T05:28:15.778Z,229.79
2023-05-09T05:29:15.768Z,237.29
2023-05-09T05:30:15.952Z,250.00
2023-05-09T05:31:15.798Z,248.29
2023-05-09T05:32:15.765Z,248.86
2023-05-09T05:33:15.755Z,249.59
2023-05-09T05:34:15.783Z,248.02
2023-05-09T05:35:15.953Z,246.63
2023-05-09T05:36:15.737Z,248.83
2023-05-09T05:37:15.720Z,247.90
2023-05-09T05:38:15.694Z,249.86
2023-05-09T05:39:15.752Z,247.40
2023-05-09T05:40:15.711Z,249.02
2023-05-09T05:41:15.712Z,248.29
2023-05-09T05:42:15.720Z,248.72
2023-05-09T05:43:15.771Z,246.12
2023-05-09T05:44:15.661Z,245.85
2023-05-09T05:45:15.964Z,246.40
2023-05-09T05:46:15.702Z,248.25
2023-05-09T05:47:15.667Z,243.92
2023-05-09T05:48:15.668Z,245.70
2023-05-09T05:49:15.648Z,248.39
2023-05-09T05:50:15.668Z,248.61
2023-05-09T05:51:15.608Z,247.46
2023-05-09T05:52:15.604Z,247.26
2023-05-09T05:53:15.737Z,245.65
2023-05-09T05:54:15.599Z,244.84
2023-05-09T05:55:15.936Z,245.62
2023-05-09T05:56:15.573Z,242.21
2023-05-09T05:57:15.559Z,240.60
2023-05-09T05:58:15.743Z,238.41
2023-05-09T05:59:15.547Z,239.00
2023-05-09T06:00:15.519Z,235.46
2023-05-09T06:01:15.551Z,229.90
2023-05-09T06:02:15.582Z,228.39
2023-05-09T06:03:15.790Z,224.86
2023-05-09T06:04:15.569Z,226.62
2023-05-09T06:05:15.594Z,223.12
2023-05-09T06:06:15.481Z,222.73
2023-05-09T06:07:15.497Z,223.36
2023-05-09T06:08:15.729Z,226.47
2023-05-09T06:09:15.437Z,224.99
2023-05-09T06:10:15.469Z,222.31
2023-05-09T06:11:15.456Z,220.66
2023-05-09T06:12:15.444Z,218.05
2023-05-09T06:13:15.796Z,218.48
2023-05-09T06:14:15.449Z,214.32
2023-05-09T06:15:15.720Z,214.65
2023-05-09T06:16:20.018Z,211.42
2023-05-09T06:17:16.542Z,211.63
2023-05-09T06:18:15.464Z,209.73
2023-05-09T06:19:15.413Z,204.92
2023-05-09T06:20:15.401Z,201.62
2023-05-09T06:21:15.398Z,202.25
2023-05-09T06:22:15.379Z,197.17
2023-05-09T06:23:15.392Z,195.40
2023-05-09T06:24:27.431Z,191.30
2023-05-09T06:25:16.583Z,191.48
2023-05-09T06:26:15.325Z,189.49
2023-05-09T06:27:15.429Z,189.16
2023-05-09T06:28:15.322Z,184.33
2023-05-09T06:29:15.335Z,183.62
2023-05-09T06:30:25.835Z,181.53
2023-05-09T06:31:16.328Z,181.70
2023-05-09T06:32:15.338Z,177.80
2023-05-09T06:33:15.311Z,178.58
2023-05-09T06:34:15.327Z,175.01
2023-05-09T06:35:15.571Z,171.32
2023-05-09T06:36:15.273Z,166.14
2023-05-09T06:37:15.250Z,167.99
2023-05-09T06:38:15.243Z,163.33
2023-05-09T06:39:15.311Z,162.76
2023-05-09T06:40:15.256Z,159.36
2023-05-09T06:41:15.244Z,156.30
2023-05-09T06:42:15.256Z,154.33
2023-05-09T06:43:15.354Z,153.94
2023-05-09T06:44:15.245Z,153.76
2023-05-09T06:45:15.492Z,151.71
2023-05-09T06:46:15.300Z,150.50
2023-05-09T06:47:15.235Z,147.77
2023-05-09T06:48:15.267Z,144.53
2023-05-09T06:49:15.224Z,141.39
2023-05-09T06:50:15.260Z,141.42
2023-05-09T06:51:15.341Z,141.27
2023-05-09T06:52:15.408Z,137.86
2023-05-09T06:53:15.344Z,137.41
2023-05-09T06:54:15.390Z,163.43
2023-05-09T06:55:15.681Z,154.33
2023-05-09T06:56:15.464Z,165.70
2023-05-09T06:57:15.517Z,182.50
2023-05-09T06:58:15.779Z,187.52
2023-05-09T06:59:15.540Z,190.97
2023-05-09T07:00:15.579Z,199.15
2023-05-09T07:01:15.609Z,187.44
2023-05-09T07:02:15.591Z,184.39
2023-05-09T07:03:15.594Z,169.37
2023-05-09T07:04:15.593Z,176.26
2023-05-09T07:05:15.842Z,186.29
2023-05-09T07:06:15.618Z,234.64
2023-05-09T07:07:15.606Z,245.89
2023-05-09T07:08:15.604Z,226.27
2023-05-09T07:09:15.606Z,223.28
2023-05-09T07:10:15.605Z,222.59
2023-05-09T07:11:15.639Z,223.19
2023-05-09T07:12:15.699Z,224.55
2023-05-09T07:13:15.808Z,223.20
2023-05-09T07:14:15.814Z,225.29
2023-05-09T07:15:25.667Z,222.89
2023-05-09T07:16:16.870Z,217.05
2023-05-09T07:17:23.684Z,203.87
2023-05-09T07:18:16.857Z,220.74
2023-05-09T07:19:15.832Z,186.08
2023-05-09T07:20:15.822Z,184.70
2023-05-09T07:21:15.812Z,181.32
2023-05-09T07:22:15.797Z,176.18
2023-05-09T07:23:15.796Z,162.65
2023-05-09T07:24:15.771Z,184.12
2023-05-09T07:25:15.997Z,194.57
2023-05-09T07:26:15.775Z,202.12
2023-05-09T07:27:15.781Z,210.67
2023-05-09T07:28:16.286Z,219.72
2023-05-09T07:29:15.839Z,239.97
2023-05-09T07:30:15.992Z,245.06
2023-05-09T07:31:16.037Z,241.57
2023-05-09T07:32:15.981Z,238.43
2023-05-09T07:33:16.298Z,235.87
2023-05-09T07:34:16.020Z,229.78
2023-05-09T07:35:16.253Z,227.82
2023-05-09T07:36:16.054Z,230.73
2023-05-09T07:37:16.534Z,226.88
2023-05-09T07:38:16.310Z,230.66
2023-05-09T07:39:16.166Z,224.08
2023-05-09T07:40:16.474Z,219.84
2023-05-09T07:41:16.255Z,217.70
2023-05-09T07:42:16.249Z,226.48
2023-05-09T07:43:16.295Z,229.92
2023-05-09T07:44:16.291Z,238.75
2023-05-09T07:45:16.659Z,237.24
2023-05-09T07:46:16.407Z,234.79
2023-05-09T07:47:16.409Z,235.00
2023-05-09T07:48:16.768Z,240.28
2023-05-09T07:49:16.312Z,250.00
2023-05-09T07:50:16.312Z,244.45
2023-05-09T07:51:16.343Z,242.64
2023-05-09T07:52:16.333Z,243.69
2023-05-09T07:53:16.296Z,246.34
2023-05-09T07:54:16.818Z,249.19
2023-05-09T07:55:16.564Z,248.74
2023-05-09T07:56:16.349Z,246.37
2023-05-09T07:57:16.397Z,245.80
2023-05-09T07:58:16.434Z,242.72
2023-05-09T07:59:16.467Z,240.65
2023-05-09T08:00:16.505Z,240.82
2023-05-09T08:01:16.522Z,239.56
2023-05-09T08:02:16.626Z,235.68
2023-05-09T08:03:16.854Z,232.83
2023-05-09T08:04:16.801Z,231.16
2023-05-09T08:05:17.024Z,227.59
2023-05-09T08:06:16.696Z,229.67
2023-05-09T08:07:16.827Z,226.59
2023-05-09T08:08:16.776Z,236.19
2023-05-09T08:09:16.844Z,232.39
2023-05-09T08:10:16.905Z,234.20
2023-05-09T08:11:16.929Z,234.97
2023-05-09T08:12:17.033Z,230.25
2023-05-09T08:13:17.050Z,231.34
2023-05-09T08:14:17.300Z,229.18
2023-05-09T08:15:17.422Z,230.57
2023-05-09T08:16:17.261Z,227.18
2023-05-09T08:17:17.242Z,216.59
2023-05-09T08:18:17.304Z,217.68
2023-05-09T08:19:17.474Z,221.56
2023-05-09T08:20:17.387Z,225.26
2023-05-09T08:21:17.824Z,221.23
2023-05-09T08:22:17.532Z,224.30
2023-05-09T08:23:17.605Z,221.15
2023-05-09T08:24:17.677Z,220.80
2023-05-09T08:25:17.738Z,216.10
2023-05-09T08:26:17.720Z,220.44
2023-05-09T08:27:17.792Z,218.17
2023-05-09T08:28:17.973Z,216.24
2023-05-09T08:29:17.872Z,210.17
2023-05-09T08:30:17.892Z,215.35
2023-05-09T08:31:18.004Z,215.36
2023-05-09T08:32:17.996Z,214.06
2023-05-09T08:33:18.121Z,206.64
2023-05-09T08:34:18.048Z,216.11
2023-05-09T08:35:18.240Z,209.44
2023-05-09T08:36:18.105Z,206.25
2023-05-09T08:37:18.155Z,209.00
2023-05-09T08:38:18.202Z,211.18
2023-05-09T08:39:18.297Z,209.92
2023-05-09T08:40:18.244Z,206.57
2023-05-09T08:41:18.261Z,206.52
2023-05-09T08:42:18.317Z,209.38
2023-05-09T08:43:18.325Z,205.26
2023-05-09T08:44:18.856Z,210.37
2023-05-09T08:45:18.382Z,210.96
2023-05-09T08:46:18.446Z,210.97
2023-05-09T08:47:18.420Z,211.12
2023-05-09T08:48:18.420Z,217.30
2023-05-09T08:49:18.835Z,222.04
2023-05-09T08:50:18.829Z,226.31
2023-05-09T08:51:18.570Z,221.37
2023-05-09T08:52:18.491Z,224.13
2023-05-09T08:53:18.510Z,228.20
2023-05-09T08:54:20.075Z,226.69
2023-05-09T08:55:18.510Z,230.27
2023-05-09T08:56:18.507Z,221.08
2023-05-09T08:57:18.523Z,215.02
2023-05-09T08:58:18.530Z,228.68
2023-05-09T08:59:18.505Z,190.89
2023-05-09T09:00:20.467Z,191.41
2023-05-09T09:01:18.526Z,172.84
2023-05-09T09:02:18.512Z,175.09
2023-05-09T09:03:18.533Z,159.42
2023-05-09T09:04:18.590Z,156.62
2023-05-09T09:05:39.643Z,161.28
2023-05-09T09:06:19.612Z,152.58
2023-05-09T09:07:18.674Z,143.10
2023-05-09T09:08:18.552Z,156.28
2023-05-09T09:09:18.812Z,150.62
2023-05-09T09:10:18.564Z,151.80
2023-05-09T09:11:18.592Z,142.48
2023-05-09T09:12:18.578Z,143.63
2023-05-09T09:13:18.598Z,131.73
2023-05-09T09:14:18.535Z,126.46
2023-05-09T09:15:18.556Z,137.26
2023-05-09T09:16:18.644Z,134.59
2023-05-09T09:17:18.667Z,133.55
2023-05-09T09:18:18.724Z,133.49
2023-05-09T09:19:18.811Z,104.99
2023-05-09T09:20:18.851Z,114.90
2023-05-09T09:21:18.909Z,109.25
2023-05-09T09:22:18.950Z,92.55
2023-05-09T09:23:19.105Z,83.21
2023-05-09T09:24:19.064Z,72.41
2023-05-09T09:25:19.141Z,109.99
2023-05-09T09:26:19.195Z,100.81
2023-05-09T09:27:19.327Z,74.99
2023-05-09T09:28:19.322Z,93.91
2023-05-09T09:29:19.331Z,109.66
2023-05-09T09:30:19.450Z,118.41
2023-05-09T09:31:19.511Z,119.44
2023-05-09T09:32:19.552Z,130.44
2023-05-09T09:33:19.568Z,132.51
2023-05-09T09:34:19.607Z,142.34
2023-05-09T09:35:19.662Z,149.13
2023-05-09T09:36:19.734Z,149.27
2023-05-09T09:37:19.724Z,148.38
2023-05-09T09:38:19.819Z,153.58
2023-05-09T09:39:19.898Z,160.26
2023-05-09T09:40:19.904Z,147.47
2023-05-09T09:41:19.933Z,152.41
2023-05-09T09:42:19.964Z,145.95
2023-05-09T09:43:20.013Z,152.19
2023-05-09T09:44:20.330Z,170.82
2023-05-09T09:45:20.236Z,169.80
2023-05-09T09:46:20.160Z,152.81
2023-05-09T09:47:20.170Z,153.55
2023-05-09T09:48:20.222Z,162.17
2023-05-09T09:49:20.320Z,152.51
2023-05-09T09:50:20.422Z,124.40
2023-05-09T09:51:20.386Z,118.59
2023-05-09T09:52:20.408Z,118.08
2023-05-09T09:53:20.436Z,116.17
2023-05-09T09:54:20.876Z,110.00
2023-05-09T09:55:20.584Z,111.34
2023-05-09T09:56:20.532Z,103.64
2023-05-09T09:57:20.525Z,100.23
2023-05-09T09:58:20.608Z,108.16
2023-05-09T09:59:20.611Z,112.30
2023-05-09T10:00:20.643Z,104.99
2023-05-09T10:01:20.755Z,100.96
2023-05-09T10:02:20.729Z,86.17
2023-05-09T10:03:20.844Z,85.05
2023-05-09T10:04:20.737Z,101.54
2023-05-09T10:05:20.781Z,90.78
2023-05-09T10:06:20.798Z,82.72
2023-05-09T10:07:20.796Z,68.49
2023-05-09T10:08:20.764Z,60.09
2023-05-09T10:09:20.882Z,59.59
2023-05-09T10:10:20.879Z,71.23
2023-05-09T10:11:20.978Z,55.84
2023-05-09T10:12:20.861Z,53.45
2023-05-09T10:13:20.987Z,44.25
2023-05-09T10:14:20.838Z,32.31
2023-05-09T10:15:20.926Z,32.94
2023-05-09T10:16:35.709Z,29.06
2023-05-09T10:17:22.089Z,29.26
2023-05-09T10:18:21.044Z,23.75
2023-05-09T10:19:21.361Z,17.89
2023-05-09T10:20:20.897Z,13.34
2023-05-09T10:21:20.893Z,7.21
2023-05-09T10:22:20.897Z,23.56
2023-05-09T10:23:20.895Z,25.96
2023-05-09T10:24:20.886Z,30.18
2023-05-09T10:25:20.851Z,27.77
2023-05-09T10:26:20.841Z,25.11
2023-05-09T10:27:20.824Z,25.22
2023-05-09T10:28:20.839Z,25.12
2023-05-09T10:29:20.823Z,26.15
2023-05-09T10:30:20.809Z,27.36
2023-05-09T10:31:20.864Z,29.14
2023-05-09T10:32:20.856Z,25.08
2023-05-09T10:33:20.795Z,25.00
2023-05-09T10:34:20.804Z,26.32
2023-05-09T10:35:20.800Z,25.00
2023-05-09T10:36:20.812Z,25.28
2023-05-09T10:37:20.777Z,26.25
2023-05-09T10:38:20.750Z,32.06
2023-05-09T10:39:20.753Z,25.00
2023-05-09T10:40:20.765Z,29.35
2023-05-09T10:41:20.733Z,25.41
2023-05-09T10:42:20.732Z,28.87
2023-05-09T10:43:20.839Z,26.82
2023-05-09T10:44:20.843Z,27.62
2023-05-09T10:45:20.728Z,24.38
2023-05-09T10:46:20.741Z,27.24
2023-05-09T10:47:20.759Z,29.84
2023-05-09T10:48:20.685Z,26.32
2023-05-09T10:49:20.681Z,32.74
2023-05-09T10:50:20.720Z,66.83
2023-05-09T10:51:20.687Z,75.11
2023-05-09T10:52:20.674Z,81.85
2023-05-09T10:53:20.686Z,79.06
2023-05-09T10:54:20.854Z,78.43
2023-05-09T10:55:20.739Z,89.78
2023-05-09T10:56:20.757Z,97.92
2023-05-09T10:57:20.751Z,100.33
2023-05-09T10:58:20.801Z,105.21
2023-05-09T10:59:20.787Z,103.00
2023-05-09T11:00:20.801Z,105.75
2023-05-09T11:01:20.786Z,108.92
2023-05-09T11:02:20.776Z,109.26
2023-05-09T11:03:20.817Z,113.26
2023-05-09T11:04:21.372Z,118.25
2023-05-09T11:05:20.881Z,118.88
2023-05-09T11:06:20.869Z,119.96
2023-05-09T11:07:20.875Z,121.11
2023-05-09T11:08:20.886Z,127.53
2023-05-09T11:09:20.928Z,125.74
2023-05-09T11:10:21.925Z,120.83
2023-05-09T11:11:20.941Z,117.10
2023-05-09T11:12:20.912Z,122.20
2023-05-09T11:13:21.095Z,128.06
2023-05-09T11:14:21.358Z,124.76
2023-05-09T11:15:20.996Z,131.47
2023-05-09T11:16:20.959Z,127.58
2023-05-09T11:17:20.928Z,124.80
2023-05-09T11:18:20.899Z,125.81
2023-05-09T11:19:21.127Z,127.07
2023-05-09T11:20:21.415Z,127.82
2023-05-09T11:21:20.981Z,123.77
2023-05-09T11:22:21.039Z,121.77
2023-05-09T11:23:21.046Z,124.10
2023-05-09T11:24:21.877Z,125.89
2023-05-09T11:25:21.379Z,128.79
2023-05-09T11:26:21.086Z,126.69
2023-05-09T11:27:21.107Z,121.91
2023-05-09T11:28:21.083Z,118.42
2023-05-09T11:29:21.146Z,124.87
2023-05-09T11:30:21.139Z,116.11
2023-05-09T11:31:21.265Z,113.00
2023-05-09T11:32:21.202Z,112.84
2023-05-09T11:33:21.201Z,116.55
2023-05-09T11:34:21.193Z,98.66
2023-05-09T11:35:21.463Z,87.30
2023-05-09T11:36:21.342Z,93.76
2023-05-09T11:37:21.268Z,74.55
2023-05-09T11:38:21.334Z,71.75
2023-05-09T11:39:21.347Z,84.68
2023-05-09T11:40:21.341Z,84.56
2023-05-09T11:41:21.497Z,58.20
2023-05-09T11:42:21.351Z,47.44
2023-05-09T11:43:21.300Z,37.52
2023-05-09T11:44:21.343Z,32.15
2023-05-09T11:45:21.372Z,29.95
2023-05-09T11:46:21.355Z,25.29
2023-05-09T11:47:21.480Z,29.33
2023-05-09T11:48:21.286Z,31.99
2023-05-09T11:49:21.342Z,26.10
2023-05-09T11:50:21.303Z,28.81
2023-05-09T11:51:21.315Z,27.46
2023-05-09T11:52:21.319Z,29.63
2023-05-09T11:53:21.373Z,29.03
2023-05-09T11:54:21.338Z,28.50
2023-05-09T11:55:21.371Z,30.84
2023-05-09T11:56:21.346Z,25.20
2023-05-09T11:57:21.357Z,27.35
2023-05-09T11:58:21.366Z,29.39
2023-05-09T11:59:21.393Z,31.52
2023-05-09T12:00:21.880Z,25.00
2023-05-09T12:01:21.578Z,25.00
2023-05-09T12:02:21.618Z,25.53
2023-05-09T12:03:21.858Z,25.00
2023-05-09T12:04:21.675Z,27.09
2023-05-09T12:05:21.687Z,26.44
2023-05-09T12:06:21.663Z,23.46
2023-05-09T12:07:21.666Z,27.90
2023-05-09T12:08:21.765Z,25.00
2023-05-09T12:09:21.733Z,25.00
2023-05-09T12:10:21.885Z,25.00
2023-05-09T12:11:21.853Z,29.69
2023-05-09T12:12:21.909Z,26.37
2023-05-09T12:13:21.882Z,25.00
2023-05-09T12:14:21.869Z,25.10
2023-05-09T12:15:22.217Z,27.32
2023-05-09T12:16:22.004Z,29.12
2023-05-09T12:17:21.975Z,27.70
2023-05-09T12:18:21.965Z,25.88
2023-05-09T12:19:22.117Z,25.51
2023-05-09T12:20:22.426Z,27.75
2023-05-09T12:21:22.238Z,27.07
2023-05-09T12:22:22.038Z,25.91
2023-05-09T12:23:22.038Z,30.23
2023-05-09T12:24:22.266Z,26.46
2023-05-09T12:25:22.274Z,27.38
2023-05-09T12:26:22.277Z,26.12
2023-05-09T12:27:22.197Z,27.18
2023-05-09T12:28:22.234Z,25.21
2023-05-09T12:29:22.229Z,26.67
2023-05-09T12:30:22.213Z,25.89
2023-05-09T12:31:22.259Z,26.66
2023-05-09T12:32:22.234Z,33.92